createdAt,value
2023-12-01T00:01:50.340Z,-0.85
2023-12-01T00:06:56.594Z,-0.83
2023-12-01T00:12:02.783Z,-0.82
2023-12-01T00:17:09.376Z,-0.83
2023-12-01T00:22:15.781Z,-0.83
2023-12-01T00:27:21.822Z,-0.80
2023-12-01T00:32:28.077Z,-0.80
2023-12-01T00:37:34.430Z,-0.79
2023-12-01T00:42:40.485Z,-0.77
2023-12-01T00:47:46.796Z,-0.77
2023-12-01T00:52:53.374Z,-0.77
2023-12-01T00:57:59.494Z,-0.79
2023-12-01T01:03:05.611Z,-0.79
2023-12-01T01:08:11.695Z,-0.80
2023-12-01T01:13:18.636Z,-0.79
2023-12-01T01:18:25.629Z,-0.78
2023-12-01T01:23:32.076Z,-0.77
2023-12-01T01:28:38.269Z,-0.79
2023-12-01T01:33:44.326Z,-0.77
2023-12-01T01:38:51.209Z,-0.78
2023-12-01T01:43:55.970Z,-0.81
2023-12-01T01:49:02.416Z,-0.83
2023-12-01T01:54:09.293Z,-0.84
2023-12-01T01:59:15.091Z,-0.84
2023-12-01T02:04:21.788Z,-0.86
2023-12-01T02:09:29.358Z,-0.85
2023-12-01T02:14:35.608Z,-0.85
2023-12-01T02:19:42.289Z,-0.87
2023-12-01T02:24:48.938Z,-0.88
2023-12-01T02:29:55.098Z,-0.91
2023-12-01T02:35:01.382Z,-0.94
2023-12-01T02:40:17.488Z,-0.99
2023-12-01T02:45:25.216Z,-1.00
2023-12-01T02:50:32.447Z,-1.02
2023-12-01T02:55:39.178Z,-1.04
2023-12-01T03:00:46.202Z,-1.05
2023-12-01T03:05:52.383Z,-1.05
2023-12-01T03:10:58.977Z,-1.08
2023-12-01T03:16:05.244Z,-1.06
2023-12-01T03:21:15.164Z,-1.07
2023-12-01T03:26:24.258Z,-1.07
2023-12-01T03:31:30.300Z,-1.10
2023-12-01T03:36:36.423Z,-1.12
2023-12-01T03:41:43.508Z,-1.14
2023-12-01T03:46:49.538Z,-1.15
2023-12-01T03:51:56.014Z,-1.17
2023-12-01T03:57:02.076Z,-1.18
2023-12-01T04:02:08.463Z,-1.19
2023-12-01T04:07:14.454Z,-1.22
2023-12-01T04:12:20.653Z,-1.23
2023-12-01T04:17:26.661Z,-1.26
2023-12-01T04:22:32.610Z,-1.25
2023-12-01T04:27:39.221Z,-1.26
2023-12-01T04:32:47.716Z,-1.29
2023-12-01T04:37:54.113Z,-1.28
2023-12-01T04:43:02.722Z,-1.31
2023-12-01T04:48:10.591Z,-1.31
2023-12-01T04:53:17.068Z,-1.30
2023-12-01T04:58:23.308Z,-1.34
2023-12-01T05:03:29.369Z,-1.33
2023-12-01T05:08:35.586Z,-1.31
2023-12-01T05:13:42.724Z,-1.30
2023-12-01T05:18:48.722Z,-1.30
2023-12-01T05:23:54.889Z,-1.31
2023-12-01T05:29:00.842Z,-1.33
2023-12-01T05:34:07.750Z,-1.32
2023-12-01T05:39:14.537Z,-1.35
2023-12-01T05:44:20.813Z,-1.36
2023-12-01T05:49:27.111Z,-1.36
2023-12-01T05:54:33.455Z,-1.36
2023-12-01T05:59:39.724Z,-1.37
2023-12-01T06:04:46.160Z,-1.38
2023-12-01T06:09:52.368Z,-1.40
2023-12-01T06:14:58.618Z,-1.42
2023-12-01T06:20:05.264Z,-1.42
2023-12-01T06:25:11.750Z,-1.43
2023-12-01T06:30:19.429Z,-1.42
2023-12-01T06:35:25.800Z,-1.41
2023-12-01T06:40:35.341Z,-1.41
2023-12-01T06:45:45.534Z,-1.42
2023-12-01T06:50:51.690Z,-1.43
2023-12-01T06:56:01.007Z,-1.41
2023-12-01T07:01:08.053Z,-1.40
2023-12-01T07:06:14.585Z,-1.37
2023-12-01T07:11:20.908Z,-1.32
2023-12-01T07:16:27.853Z,-1.26
2023-12-01T07:21:34.144Z,-1.23
2023-12-01T07:26:40.186Z,-1.19
2023-12-01T07:31:46.542Z,-1.14
2023-12-01T07:36:53.898Z,-1.07
2023-12-01T07:42:00.297Z,-0.98
2023-12-01T07:47:10.102Z,-0.93
2023-12-01T07:52:16.477Z,-0.88
2023-12-01T07:57:23.190Z,-0.83
2023-12-01T08:02:29.782Z,-0.74
2023-12-01T08:07:35.992Z,-0.64
2023-12-01T08:12:42.181Z,-0.55
2023-12-01T08:17:49.045Z,-0.47
2023-12-01T08:22:53.599Z,-0.37
2023-12-01T08:27:59.795Z,-0.28
2023-12-01T08:33:07.350Z,-0.20
2023-12-01T08:38:13.592Z,-0.10
2023-12-01T08:43:19.680Z,-0.02
2023-12-01T08:48:25.918Z,0.06
2023-12-01T08:53:32.173Z,0.13
2023-12-01T08:58:39.282Z,0.22
2023-12-01T09:03:45.750Z,0.32
2023-12-01T09:08:51.857Z,0.43
2023-12-01T09:13:57.861Z,0.49
2023-12-01T09:19:06.022Z,0.58
2023-12-01T09:24:13.596Z,0.64
2023-12-01T09:29:19.830Z,0.70
2023-12-01T09:34:25.909Z,0.75
2023-12-01T09:39:32.080Z,0.79
2023-12-01T09:44:38.118Z,0.82
2023-12-01T09:49:45.062Z,0.82
2023-12-01T09:55:07.315Z,0.83
2023-12-01T10:00:18.607Z,0.83
2023-12-01T10:05:27.649Z,0.85
2023-12-01T10:10:34.495Z,0.90
2023-12-01T10:15:41.374Z,0.94
2023-12-01T10:21:05.211Z,1.00
2023-12-01T10:26:14.965Z,1.04
2023-12-01T10:31:20.969Z,1.09
2023-12-01T10:36:27.383Z,1.13
2023-12-01T10:41:34.135Z,1.17
2023-12-01T10:46:38.588Z,1.22
2023-12-01T10:51:44.787Z,1.24
2023-12-01T10:57:04.035Z,1.22
2023-12-01T11:02:14.995Z,1.21
2023-12-01T11:07:34.953Z,1.20
2023-12-01T11:12:49.683Z,1.21
2023-12-01T11:17:58.477Z,1.23
2023-12-01T11:23:25.061Z,1.25
2023-12-01T11:28:44.128Z,1.29
2023-12-01T11:33:52.322Z,1.29
2023-12-01T11:39:31.572Z,1.28
2023-12-01T11:44:39.869Z,1.30
2023-12-01T11:49:47.621Z,1.31
2023-12-01T11:54:53.759Z,1.32
2023-12-01T12:00:01.717Z,1.38
2023-12-01T12:05:09.326Z,1.45
2023-12-01T12:10:18.511Z,1.47
2023-12-01T12:15:24.590Z,1.51
2023-12-01T12:20:30.828Z,1.55
2023-12-01T12:25:40.360Z,1.58
2023-12-01T12:30:46.504Z,1.57
2023-12-01T12:35:52.626Z,1.49
2023-12-01T12:40:59.109Z,1.38
2023-12-01T12:46:07.649Z,1.31
2023-12-01T12:51:14.853Z,1.28
2023-12-01T12:56:22.947Z,1.24
2023-12-01T13:01:29.740Z,1.23
2023-12-01T13:06:35.607Z,1.20
2023-12-01T13:11:54.327Z,1.12
2023-12-01T13:17:00.248Z,1.10
2023-12-01T13:22:06.593Z,1.13
2023-12-01T13:27:15.476Z,1.14
2023-12-01T13:32:21.437Z,1.11
2023-12-01T13:37:27.267Z,1.10
2023-12-01T13:42:33.199Z,1.11
2023-12-01T13:47:39.331Z,1.12
2023-12-01T13:52:46.122Z,1.10
2023-12-01T13:57:52.620Z,1.09
2023-12-01T14:02:59.472Z,1.07
2023-12-01T14:08:06.660Z,1.05
2023-12-01T14:13:12.957Z,1.04
2023-12-01T14:18:18.994Z,1.02
2023-12-01T14:23:24.906Z,1.00
2023-12-01T14:28:33.208Z,0.99
2023-12-01T14:33:39.640Z,0.97
2023-12-01T14:38:45.839Z,0.95
2023-12-01T14:43:52.088Z,0.93
2023-12-01T14:49:01.194Z,0.90
2023-12-01T14:54:07.839Z,0.87
2023-12-01T14:59:13.688Z,0.85
2023-12-01T15:04:19.964Z,0.82
2023-12-01T15:09:26.217Z,0.77
2023-12-01T15:14:32.085Z,0.72
2023-12-01T15:19:38.085Z,0.68
2023-12-01T15:24:44.072Z,0.62
2023-12-01T15:29:50.394Z,0.54
2023-12-01T15:34:58.698Z,0.51
2023-12-01T15:40:05.196Z,0.51
2023-12-01T15:45:12.771Z,0.51
2023-12-01T15:50:19.011Z,0.48
2023-12-01T15:55:24.921Z,0.45
2023-12-01T16:00:31.046Z,0.41
2023-12-01T16:05:37.389Z,0.36
2023-12-01T16:10:43.253Z,0.34
2023-12-01T16:15:49.077Z,0.34
2023-12-01T16:20:55.528Z,0.31
2023-12-01T16:26:01.455Z,0.28
2023-12-01T16:31:09.276Z,0.24
2023-12-01T16:36:31.221Z,0.21
2023-12-01T16:41:39.203Z,0.17
2023-12-01T16:46:45.044Z,0.13
2023-12-01T16:51:51.040Z,0.10
2023-12-01T16:56:57.922Z,0.09
2023-12-01T17:02:02.287Z,0.08
2023-12-01T17:07:09.723Z,0.05
2023-12-01T17:12:15.494Z,0.01
2023-12-01T17:17:21.345Z,0.01
2023-12-01T17:22:27.359Z,0.04
2023-12-01T17:27:33.320Z,0.02
2023-12-01T17:32:40.634Z,-0.02
2023-12-01T17:37:46.752Z,-0.06
2023-12-01T17:42:53.139Z,-0.06
2023-12-01T17:47:59.476Z,-0.07
2023-12-01T17:53:05.596Z,-0.08
2023-12-01T17:58:11.731Z,-0.10
2023-12-01T18:03:17.613Z,-0.13
2023-12-01T18:08:23.995Z,-0.17
2023-12-01T18:13:29.878Z,-0.23
2023-12-01T18:18:37.969Z,-0.24
2023-12-01T18:23:44.187Z,-0.23
2023-12-01T18:28:49.974Z,-0.26
2023-12-01T18:33:55.876Z,-0.28
2023-12-01T18:39:02.424Z,-0.31
2023-12-01T18:44:09.036Z,-0.29
2023-12-01T18:49:14.929Z,-0.27
2023-12-01T18:54:21.733Z,-0.27
2023-12-01T18:59:26.063Z,-0.27
2023-12-01T19:04:32.267Z,-0.24
2023-12-01T19:09:38.382Z,-0.23
2023-12-01T19:14:44.319Z,-0.25
2023-12-01T19:19:50.615Z,-0.22
2023-12-01T19:24:56.672Z,-0.18
2023-12-01T19:30:03.224Z,-0.14
2023-12-01T19:35:12.190Z,-0.15
2023-12-01T19:40:20.698Z,-0.17
2023-12-01T19:45:26.736Z,-0.22
2023-12-01T19:50:32.613Z,-0.29
2023-12-01T19:55:38.989Z,-0.35
2023-12-01T20:00:44.982Z,-0.40
2023-12-01T20:05:51.071Z,-0.43
2023-12-01T20:10:57.043Z,-0.45
2023-12-01T20:16:02.913Z,-0.48
2023-12-01T20:21:09.866Z,-0.51
2023-12-01T20:26:15.758Z,-0.54
2023-12-01T20:31:21.525Z,-0.55
2023-12-01T20:36:27.442Z,-0.59
2023-12-01T20:41:33.259Z,-0.60
2023-12-01T20:46:39.091Z,-0.59
2023-12-01T20:51:45.254Z,-0.59
2023-12-01T20:56:51.392Z,-0.57
2023-12-01T21:01:57.256Z,-0.58
2023-12-01T21:07:03.988Z,-0.59
2023-12-01T21:12:10.694Z,-0.63
2023-12-01T21:17:16.677Z,-0.70
2023-12-01T21:22:22.623Z,-0.76
2023-12-01T21:27:29.960Z,-0.80
2023-12-01T21:32:37.701Z,-0.82
2023-12-01T21:37:44.563Z,-0.86
2023-12-01T21:42:50.726Z,-0.86
2023-12-01T21:47:56.633Z,-0.85
2023-12-01T21:53:03.563Z,-0.86
2023-12-01T21:58:07.790Z,-0.92
2023-12-01T22:03:14.134Z,-0.95
2023-12-01T22:08:20.056Z,-0.95
2023-12-01T22:13:25.934Z,-0.98
2023-12-01T22:18:31.949Z,-0.99
2023-12-01T22:23:40.115Z,-0.96
2023-12-01T22:28:46.114Z,-0.97
2023-12-01T22:33:51.988Z,-0.97
2023-12-01T22:38:57.990Z,-0.94
2023-12-01T22:44:03.925Z,-0.93
2023-12-01T22:49:11.461Z,-0.95
2023-12-01T22:54:17.446Z,-0.95
2023-12-01T22:59:23.240Z,-0.93
2023-12-01T23:04:29.210Z,-0.90
2023-12-01T23:09:35.266Z,-0.95
2023-12-01T23:14:41.328Z,-1.02
2023-12-01T23:19:47.762Z,-1.08
2023-12-01T23:24:54.114Z,-1.10
2023-12-01T23:30:00.076Z,-1.11
2023-12-01T23:35:07.126Z,-1.15
2023-12-01T23:40:14.361Z,-1.17
2023-12-01T23:45:20.428Z,-1.17
2023-12-01T23:50:26.969Z,-1.16
2023-12-01T23:55:33.111Z,-1.16
